createdAt,value
2023-02-28T00:02:51.775Z,102901.47
2023-02-28T00:05:53.311Z,102894.44
2023-02-28T00:08:55.472Z,102898.84
2023-02-28T00:11:56.993Z,102895.34
2023-02-28T00:14:58.531Z,102888.34
2023-02-28T00:18:00.278Z,102902.41
2023-02-28T00:21:02.382Z,102888.38
2023-02-28T00:24:04.108Z,102898.91
2023-02-28T00:27:05.699Z,102904.19
2023-02-28T00:30:09.663Z,102906.84
2023-02-28T00:33:12.034Z,102905.13
2023-02-28T00:36:13.575Z,102905.13
2023-02-28T00:39:15.186Z,102899.88
2023-02-28T00:42:16.733Z,102893.72
2023-02-28T00:45:18.461Z,102903.38
2023-02-28T00:48:20.026Z,102913.00
2023-02-28T00:51:21.581Z,102907.75
2023-02-28T00:54:23.360Z,102909.53
2023-02-28T00:57:24.959Z,102917.44
2023-02-28T01:00:26.502Z,102917.44
2023-02-28T01:03:28.067Z,102924.44
2023-02-28T01:06:30.288Z,102916.56
2023-02-28T01:09:31.953Z,102923.59
2023-02-28T01:12:33.528Z,102926.22
2023-02-28T01:15:35.182Z,102920.97
2023-02-28T01:18:37.988Z,102917.47
2023-02-28T01:21:39.574Z,102923.63
2023-02-28T01:24:41.127Z,102918.34
2023-02-28T01:27:42.701Z,102924.47
2023-02-28T01:31:04.218Z,102916.56
2023-02-28T01:34:05.912Z,102920.09
2023-02-28T01:37:07.483Z,102916.59
2023-02-28T01:40:09.774Z,102914.81
2023-02-28T01:43:25.917Z,102913.97
2023-02-28T01:46:27.639Z,102900.78
2023-02-28T01:49:29.259Z,102905.19
2023-02-28T01:52:32.866Z,102912.22
2023-02-28T01:55:35.569Z,102911.31
2023-02-28T01:58:38.131Z,102906.94
2023-02-28T02:01:39.753Z,102900.78
2023-02-28T02:04:51.057Z,102900.81
2023-02-28T02:07:57.038Z,102906.97
2023-02-28T02:11:02.051Z,102909.59
2023-02-28T02:14:22.533Z,102904.31
2023-02-28T02:17:45.666Z,102905.19
2023-02-28T02:21:19.604Z,102904.31
2023-02-28T02:24:36.276Z,102902.56
2023-02-28T02:28:05.658Z,102897.28
2023-02-28T02:31:16.170Z,102894.69
2023-02-28T02:34:42.455Z,102890.31
2023-02-28T02:37:51.234Z,102894.69
2023-02-28T02:41:17.001Z,102896.44
2023-02-28T02:44:57.245Z,102894.69
2023-02-28T02:48:01.256Z,102901.72
2023-02-28T02:51:12.846Z,102897.34
2023-02-28T02:54:19.132Z,102899.09
2023-02-28T02:57:56.568Z,102898.22
2023-02-28T03:01:01.777Z,102896.47
2023-02-28T03:04:16.025Z,102891.19
2023-02-28T03:07:17.584Z,102892.97
2023-02-28T03:10:29.652Z,102891.19
2023-02-28T03:13:53.377Z,102890.34
2023-02-28T03:17:10.181Z,102890.31
2023-02-28T03:20:43.166Z,102896.47
2023-02-28T03:24:04.831Z,102897.34
2023-02-28T03:27:13.101Z,102905.22
2023-02-28T03:30:37.128Z,102905.22
2023-02-28T03:34:02.106Z,102901.72
2023-02-28T03:37:09.855Z,102911.31
2023-02-28T03:40:22.536Z,102913.13
2023-02-28T03:43:29.828Z,102912.22
2023-02-28T03:46:37.328Z,102920.09
2023-02-28T03:49:48.906Z,102917.44
2023-02-28T03:53:19.361Z,102913.97
2023-02-28T03:56:26.089Z,102915.72
2023-02-28T03:59:37.703Z,102909.56
2023-02-28T04:02:40.582Z,102913.97
2023-02-28T04:05:56.783Z,102907.81
2023-02-28T04:08:58.500Z,102911.31
2023-02-28T04:12:00.424Z,102906.94
2023-02-28T04:15:02.010Z,102905.16
2023-02-28T04:18:03.650Z,102918.31
2023-02-28T04:21:05.984Z,102912.19
2023-02-28T04:24:09.798Z,102920.94
2023-02-28T04:27:11.504Z,102923.56
2023-02-28T04:30:13.600Z,102923.56
2023-02-28T04:33:15.113Z,102921.81
2023-02-28T04:36:18.755Z,102919.16
2023-02-28T04:39:20.768Z,102923.53
2023-02-28T04:42:22.395Z,102922.66
2023-02-28T04:45:23.970Z,102920.91
2023-02-28T04:48:26.799Z,102922.66
2023-02-28T04:51:28.627Z,102912.13
2023-02-28T04:54:30.899Z,102910.41
2023-02-28T04:57:32.478Z,102917.41
2023-02-28T05:00:34.057Z,102915.63
2023-02-28T05:03:35.656Z,102925.28
2023-02-28T05:06:37.215Z,102922.66
2023-02-28T05:09:38.817Z,102929.66
2023-02-28T05:12:40.379Z,102923.47
2023-02-28T05:15:41.989Z,102929.59
2023-02-28T05:18:43.696Z,102936.59
2023-02-28T05:21:55.812Z,102935.72
2023-02-28T05:24:57.346Z,102927.84
2023-02-28T05:27:58.898Z,102932.19
2023-02-28T05:31:00.478Z,102935.69
2023-02-28T05:34:02.357Z,102933.94
2023-02-28T05:37:04.109Z,102930.44
2023-02-28T05:40:08.189Z,102934.81
2023-02-28T05:43:12.823Z,102934.88
2023-02-28T05:46:15.117Z,102943.78
2023-02-28T05:49:16.699Z,102942.91
2023-02-28T05:52:18.708Z,102936.75
2023-02-28T05:55:20.323Z,102940.28
2023-02-28T05:58:22.860Z,102947.28
2023-02-28T06:01:39.930Z,102931.47
2023-02-28T06:04:42.583Z,102935.84
2023-02-28T06:07:45.089Z,102937.59
2023-02-28T06:10:46.801Z,102941.97
2023-02-28T06:13:48.641Z,102949.84
2023-02-28T06:16:50.293Z,102942.78
2023-02-28T06:19:51.921Z,102945.44
2023-02-28T06:22:55.589Z,102955.91
2023-02-28T06:25:59.319Z,102952.38
2023-02-28T06:29:02.068Z,102958.44
2023-02-28T06:32:03.865Z,102950.56
2023-02-28T06:35:05.749Z,102961.06
2023-02-28T06:38:07.539Z,102959.31
2023-02-28T06:41:09.850Z,102962.81
2023-02-28T06:44:18.979Z,102968.06
2023-02-28T06:47:20.567Z,102972.44
2023-02-28T06:50:22.122Z,102962.81
2023-02-28T06:53:23.657Z,102971.56
2023-02-28T06:56:25.309Z,102969.81
2023-02-28T06:59:27.168Z,102987.31
2023-02-28T07:02:28.923Z,102985.53
2023-02-28T07:05:30.742Z,102975.88
2023-02-28T07:08:33.106Z,102981.19
2023-02-28T07:11:35.107Z,102987.34
2023-02-28T07:14:38.147Z,102994.41
2023-02-28T07:17:39.774Z,103004.94
2023-02-28T07:20:41.362Z,103000.63
2023-02-28T07:23:42.924Z,102998.91
2023-02-28T07:26:44.592Z,103006.00
2023-02-28T07:29:46.156Z,103006.91
2023-02-28T07:32:47.752Z,103010.41
2023-02-28T07:35:49.324Z,103010.44
2023-02-28T07:38:51.306Z,103006.91
2023-02-28T07:41:53.020Z,103006.03
2023-02-28T07:44:54.559Z,103012.19
2023-02-28T07:47:57.018Z,103006.00
2023-02-28T07:50:59.886Z,102999.88
2023-02-28T07:54:01.524Z,103006.00
2023-02-28T07:57:03.934Z,103008.63
2023-02-28T08:00:07.048Z,103011.25
2023-02-28T08:03:13.042Z,103007.72
2023-02-28T08:06:22.152Z,103003.31
2023-02-28T08:09:23.911Z,103001.53
2023-02-28T08:12:25.486Z,103012.88
2023-02-28T08:15:27.078Z,103014.53
2023-02-28T08:18:28.642Z,103011.91
2023-02-28T08:21:30.666Z,103019.81
2023-02-28T08:24:32.471Z,103011.91
2023-02-28T08:27:34.094Z,103012.78
2023-02-28T08:30:35.693Z,103018.91
2023-02-28T08:33:38.234Z,103018.88
2023-02-28T08:36:40.717Z,103018.84
2023-02-28T08:39:42.351Z,103011.81
2023-02-28T08:42:43.923Z,103014.41
2023-02-28T08:45:45.576Z,103014.31
2023-02-28T08:48:47.256Z,103021.28
2023-02-28T08:51:48.766Z,103018.56
2023-02-28T08:54:50.443Z,103025.56
2023-02-28T08:57:51.989Z,103018.44
2023-02-28T09:00:54.229Z,103027.19
2023-02-28T09:07:03.472Z,103026.22
2023-02-28T09:10:05.458Z,103020.91
2023-02-28T09:13:07.698Z,103025.31
2023-02-28T09:16:12.936Z,103024.38
2023-02-28T09:19:14.989Z,103024.31
2023-02-28T09:22:16.945Z,103029.53
2023-02-28T09:25:19.849Z,103019.75
2023-02-28T09:28:22.408Z,103021.38
2023-02-28T09:31:27.035Z,103022.97
2023-02-28T09:34:31.939Z,103025.44
2023-02-28T09:37:33.609Z,103021.72
2023-02-28T09:40:46.158Z,103026.84
2023-02-28T09:44:00.719Z,103020.50
2023-02-28T09:47:12.359Z,103022.09
2023-02-28T09:50:37.277Z,103029.84
2023-02-28T09:53:40.957Z,103025.25
2023-02-28T09:56:43.182Z,103032.19
2023-02-28T09:59:50.891Z,103033.84
2023-02-28T10:03:04.546Z,103038.09
2023-02-28T10:06:23.805Z,103034.53
2023-02-28T10:09:33.249Z,103042.34
2023-02-28T10:12:38.772Z,103028.97
2023-02-28T10:15:40.448Z,103028.81
2023-02-28T10:18:52.194Z,103027.78
2023-02-28T10:22:12.825Z,103028.53
2023-02-28T10:25:23.734Z,103032.78
2023-02-28T10:28:27.280Z,103030.03
2023-02-28T10:31:29.062Z,103044.16
2023-02-28T10:34:30.716Z,103042.44
2023-02-28T10:37:33.248Z,103033.28
2023-02-28T10:40:36.827Z,103035.66
2023-02-28T10:43:40.714Z,103031.88
2023-02-28T10:46:43.530Z,103031.88
2023-02-28T10:49:50.152Z,103039.88
2023-02-28T10:52:51.721Z,103039.88
2023-02-28T10:56:04.533Z,103035.44
2023-02-28T10:59:09.137Z,103032.78
2023-02-28T11:02:38.629Z,103033.78
2023-02-28T11:05:42.335Z,103028.38
2023-02-28T11:08:46.883Z,103033.50
2023-02-28T11:11:50.031Z,103027.34
2023-02-28T11:14:59.029Z,103030.09
2023-02-28T11:18:00.539Z,103030.75
2023-02-28T11:21:03.898Z,103026.19
2023-02-28T11:24:16.747Z,103024.31
2023-02-28T11:27:53.562Z,103024.09
2023-02-28T11:31:13.299Z,103024.75
2023-02-28T11:34:25.925Z,103023.78
2023-02-28T11:37:28.993Z,103019.94
2023-02-28T11:41:06.455Z,103025.06
2023-02-28T11:44:10.718Z,103018.56
2023-02-28T11:47:21.855Z,103012.19
2023-02-28T11:50:40.834Z,103013.19
2023-02-28T11:54:10.016Z,103003.94
2023-02-28T11:57:57.759Z,103004.44
2023-02-28T12:01:08.806Z,102999.19
2023-02-28T12:04:26.054Z,102994.72
2023-02-28T12:08:04.656Z,102991.25
2023-02-28T12:11:12.222Z,102988.78
2023-02-28T12:14:28.221Z,102977.28
2023-02-28T12:17:35.699Z,102970.00
2023-02-28T12:21:03.345Z,102966.25
2023-02-28T12:24:17.152Z,102966.84
2023-02-28T12:27:23.047Z,102960.81
2023-02-28T12:30:33.767Z,102954.97
2023-02-28T12:33:44.987Z,102956.16
2023-02-28T12:36:48.448Z,102956.44
2023-02-28T12:39:55.968Z,102947.72
2023-02-28T12:43:08.053Z,102943.09
2023-02-28T12:46:21.024Z,102940.97
2023-02-28T12:49:50.503Z,102932.69
2023-02-28T12:53:10.650Z,102933.25
2023-02-28T12:56:40.985Z,102927.78
2023-02-28T13:00:05.768Z,102922.41
2023-02-28T13:03:19.225Z,102927.47
2023-02-28T13:06:29.682Z,102922.25
2023-02-28T13:09:31.542Z,102917.16
2023-02-28T13:12:33.799Z,102918.78
2023-02-28T13:15:41.523Z,102918.38
2023-02-28T13:18:47.871Z,102912.03
2023-02-28T13:21:50.068Z,102911.66
2023-02-28T13:24:56.795Z,102905.78
2023-02-28T13:28:02.036Z,102908.81
2023-02-28T13:31:05.924Z,102913.47
2023-02-28T13:34:15.975Z,102908.47
2023-02-28T13:37:24.017Z,102913.06
2023-02-28T13:40:38.772Z,102913.25
2023-02-28T13:44:27.798Z,102912.47
2023-02-28T13:47:52.626Z,102911.41
2023-02-28T13:50:54.243Z,102920.91
2023-02-28T13:54:09.172Z,102905.78
2023-02-28T13:57:38.586Z,102899.50
2023-02-28T14:00:57.183Z,102898.50
2023-02-28T14:04:31.353Z,102887.81
2023-02-28T14:07:48.145Z,102886.25
2023-02-28T14:11:08.202Z,102883.13
2023-02-28T14:14:30.940Z,102886.00
2023-02-28T14:17:33.191Z,102880.09
2023-02-28T14:20:35.274Z,102883.00
2023-02-28T14:23:56.783Z,102883.91
2023-02-28T14:27:05.081Z,102889.09
2023-02-28T14:30:09.720Z,102879.44
2023-02-28T14:33:20.437Z,102883.97
2023-02-28T14:36:27.471Z,102885.06
2023-02-28T14:39:34.390Z,102889.56
2023-02-28T14:42:39.090Z,102887.19
2023-02-28T14:45:40.695Z,102896.94
2023-02-28T14:48:45.798Z,102902.25
2023-02-28T14:51:50.402Z,102903.72
2023-02-28T14:54:59.350Z,102900.91
2023-02-28T14:58:07.615Z,102909.91
2023-02-28T15:01:11.341Z,102897.00
2023-02-28T15:04:24.034Z,102899.81
2023-02-28T15:07:29.486Z,102899.09
2023-02-28T15:10:32.024Z,102900.28
2023-02-28T15:13:50.551Z,102897.84
2023-02-28T15:17:03.137Z,102911.13
2023-02-28T15:20:05.349Z,102905.09
2023-02-28T15:23:07.110Z,102906.06
2023-02-28T15:26:15.437Z,102899.97
2023-02-28T15:29:21.653Z,102893.88
2023-02-28T15:32:32.546Z,102895.69
2023-02-28T15:35:34.705Z,102892.25
2023-02-28T15:38:37.378Z,102882.59
2023-02-28T15:41:39.282Z,102892.16
2023-02-28T15:44:40.868Z,102891.25
2023-02-28T15:47:47.236Z,102891.25
2023-02-28T15:50:53.439Z,102884.31
2023-02-28T15:54:01.666Z,102889.69
2023-02-28T15:57:09.552Z,102885.44
2023-02-28T16:00:15.107Z,102879.47
2023-02-28T16:03:40.370Z,102879.53
2023-02-28T16:06:46.168Z,102880.38
2023-02-28T16:09:49.147Z,102870.72
2023-02-28T16:12:50.763Z,102881.38
2023-02-28T16:15:52.437Z,102870.88
2023-02-28T16:18:54.566Z,102872.69
2023-02-28T16:21:56.198Z,102872.69
2023-02-28T16:24:57.770Z,102868.31
2023-02-28T16:28:01.386Z,102865.75
2023-02-28T16:31:06.266Z,102876.34
2023-02-28T16:34:07.907Z,102877.28
2023-02-28T16:37:14.046Z,102875.59
2023-02-28T16:40:21.931Z,102877.41
2023-02-28T16:43:25.749Z,102878.38
2023-02-28T16:46:37.146Z,102876.66
2023-02-28T16:49:39.333Z,102879.38
2023-02-28T16:52:40.848Z,102881.22
2023-02-28T16:55:42.716Z,102883.94
2023-02-28T16:58:45.010Z,102887.53
2023-02-28T17:01:46.828Z,102894.69
2023-02-28T17:04:48.575Z,102891.28
2023-02-28T17:07:50.655Z,102899.28
2023-02-28T17:10:52.249Z,102904.66
2023-02-28T17:13:54.966Z,102893.31
2023-02-28T17:16:56.603Z,102902.19
2023-02-28T17:19:58.107Z,102903.16
2023-02-28T17:22:59.668Z,102908.50
2023-02-28T17:26:01.323Z,102910.31
2023-02-28T17:29:02.909Z,102915.66
2023-02-28T17:32:17.024Z,102918.31
2023-02-28T17:35:19.090Z,102917.47
2023-02-28T17:38:21.080Z,102917.56
2023-02-28T17:41:23.176Z,102926.41
2023-02-28T17:44:26.033Z,102931.75
2023-02-28T17:47:27.619Z,102927.41
2023-02-28T17:50:29.238Z,102926.59
2023-02-28T17:53:30.788Z,102924.88
2023-02-28T17:56:32.913Z,102921.41
2023-02-28T17:59:34.632Z,102930.22
2023-02-28T18:02:36.223Z,102934.63
2023-02-28T18:05:38.141Z,102928.56
2023-02-28T18:08:39.763Z,102929.47
2023-02-28T18:11:46.146Z,102935.66
2023-02-28T18:14:48.783Z,102931.31
2023-02-28T18:17:50.505Z,102927.81
2023-02-28T18:20:53.385Z,102928.72
2023-02-28T18:23:55.111Z,102933.97
2023-02-28T18:26:56.689Z,102928.75
2023-02-28T18:29:58.438Z,102926.13
2023-02-28T18:33:01.625Z,102928.75
2023-02-28T18:36:03.791Z,102929.66
2023-02-28T18:39:05.907Z,102930.56
2023-02-28T18:42:07.504Z,102928.81
2023-02-28T18:45:09.668Z,102925.31
2023-02-28T18:48:11.241Z,102925.31
2023-02-28T18:51:19.130Z,102935.84
2023-02-28T18:54:20.863Z,102927.97
2023-02-28T18:57:22.449Z,102933.25
2023-02-28T19:00:25.792Z,102929.75
2023-02-28T19:03:27.574Z,102927.13
2023-02-28T19:06:30.404Z,102925.34
2023-02-28T19:09:32.177Z,102924.47
2023-02-28T19:12:35.472Z,102927.13
2023-02-28T19:15:37.075Z,102922.75
2023-02-28T19:18:39.108Z,102925.38
2023-02-28T19:21:40.809Z,102924.50
2023-02-28T19:24:42.315Z,102924.47
2023-02-28T19:27:43.938Z,102927.09
2023-02-28T19:30:49.933Z,102926.22
2023-02-28T19:33:54.951Z,102925.31
2023-02-28T19:36:57.072Z,102932.31
2023-02-28T19:39:58.786Z,102935.81
2023-02-28T19:43:02.966Z,102941.06
2023-02-28T19:46:06.613Z,102935.78
2023-02-28T19:49:08.298Z,102940.13
2023-02-28T19:52:13.399Z,102945.34
2023-02-28T19:55:17.722Z,102947.09
2023-02-28T19:58:19.981Z,102945.31
2023-02-28T20:01:21.691Z,102949.69
2023-02-28T20:04:24.290Z,102951.44
2023-02-28T20:07:26.200Z,102949.69
2023-02-28T20:10:27.729Z,102952.31
2023-02-28T20:13:29.324Z,102948.81
2023-02-28T20:16:32.267Z,102950.53
2023-02-28T20:19:34.042Z,102951.41
2023-02-28T20:22:38.228Z,102953.97
2023-02-28T20:25:40.923Z,102951.34
2023-02-28T20:28:43.421Z,102961.81
2023-02-28T20:31:45.392Z,102958.31
2023-02-28T20:34:46.986Z,102960.06
2023-02-28T20:37:48.767Z,102957.44
2023-02-28T20:40:55.276Z,102963.53
2023-02-28T20:43:58.533Z,102953.03
2023-02-28T20:47:00.861Z,102953.88
2023-02-28T20:50:02.416Z,102950.34
2023-02-28T20:53:04.013Z,102962.59
2023-02-28T20:56:09.162Z,102966.09
2023-02-28T20:59:12.340Z,102954.69
2023-02-28T21:02:19.078Z,102962.53
2023-02-28T21:05:20.653Z,102962.53
2023-02-28T21:08:22.311Z,102959.91
2023-02-28T21:11:28.025Z,102960.72
2023-02-28T21:14:29.622Z,102959.81
2023-02-28T21:17:31.236Z,102957.16
2023-02-28T21:20:32.793Z,102961.44
2023-02-28T21:23:34.594Z,102946.53
2023-02-28T21:26:36.209Z,102953.50
2023-02-28T21:29:38.302Z,102959.56
2023-02-28T21:32:39.859Z,102957.78
2023-02-28T21:35:41.432Z,102957.75
2023-02-28T21:38:44.333Z,102957.72
2023-02-28T21:41:47.336Z,102959.41
2023-02-28T21:44:50.288Z,102963.78
2023-02-28T21:47:51.834Z,102956.69
2023-02-28T21:51:04.181Z,102961.00
2023-02-28T21:54:06.192Z,102960.09
2023-02-28T21:57:07.763Z,102970.50
2023-02-28T22:00:11.641Z,102967.81
2023-02-28T22:03:14.019Z,102961.69
2023-02-28T22:06:21.334Z,102961.69
2023-02-28T22:09:23.245Z,102966.00
2023-02-28T22:12:25.688Z,102958.16
2023-02-28T22:15:27.842Z,102959.88
2023-02-28T22:18:29.444Z,102959.00
2023-02-28T22:21:31.032Z,102966.84
2023-02-28T22:24:32.642Z,102960.03
2023-02-28T22:27:34.160Z,102969.88
2023-02-28T22:30:35.696Z,102968.13
2023-02-28T22:33:37.234Z,102968.91
2023-02-28T22:36:41.719Z,102963.63
2023-02-28T22:39:43.275Z,102963.56
2023-02-28T22:42:44.957Z,102970.44
2023-02-28T22:45:46.588Z,102957.28
2023-02-28T22:48:48.908Z,102968.56
2023-02-28T22:51:50.743Z,102962.38
2023-02-28T22:54:53.328Z,102962.31
2023-02-28T22:57:54.867Z,102950.88
2023-02-28T23:00:56.750Z,102960.41
2023-02-28T23:03:59.144Z,102944.66
2023-02-28T23:07:00.746Z,102956.81
2023-02-28T23:10:08.801Z,102962.00
2023-02-28T23:13:10.360Z,102960.22
2023-02-28T23:16:11.924Z,102970.69
2023-02-28T23:19:15.364Z,102961.91
2023-02-28T23:22:16.951Z,102966.19
2023-02-28T23:25:20.320Z,102966.09
2023-02-28T23:28:23.082Z,102971.22
2023-02-28T23:31:24.794Z,102973.78
2023-02-28T23:34:30.334Z,102978.91
2023-02-28T23:37:32.466Z,102988.38
2023-02-28T23:40:34.021Z,102983.03
2023-02-28T23:43:35.970Z,102982.03
2023-02-28T23:46:37.532Z,102984.50
2023-02-28T23:49:39.221Z,102989.63
2023-02-28T23:52:40.748Z,102986.03
2023-02-28T23:55:47.300Z,102986.81
2023-02-28T23:58:50.272Z,102982.34
